createdAt,value
2022-09-04T00:02:17.478Z,5.50
2022-09-04T00:04:47.589Z,6.07
2022-09-04T00:07:19.258Z,5.97
2022-09-04T00:09:51.634Z,5.57
2022-09-04T00:12:26.717Z,4.93
2022-09-04T00:14:55.972Z,4.77
2022-09-04T00:17:26.624Z,4.83
2022-09-04T00:19:59.285Z,5.53
2022-09-04T00:22:31.115Z,5.40
2022-09-04T00:25:03.245Z,5.07
2022-09-04T00:27:35.933Z,5.03
2022-09-04T00:30:06.030Z,5.23
2022-09-04T00:32:38.539Z,4.90
2022-09-04T00:35:08.910Z,4.80
2022-09-04T00:37:39.184Z,5.10
2022-09-04T00:40:09.966Z,6.23
2022-09-04T00:42:55.897Z,5.10
2022-09-04T00:45:29.769Z,5.23
2022-09-04T00:48:17.632Z,5.07
2022-09-04T00:51:20.576Z,5.23
2022-09-04T00:53:57.136Z,5.03
2022-09-04T00:56:36.273Z,5.33
2022-09-04T00:59:09.949Z,5.03
2022-09-04T01:01:38.807Z,5.03
2022-09-04T01:04:19.333Z,4.83
2022-09-04T01:06:51.453Z,5.00
2022-09-04T01:09:40.273Z,5.03
2022-09-04T01:12:10.516Z,4.83
2022-09-04T01:14:43.363Z,5.13
2022-09-04T01:17:18.261Z,5.43
2022-09-04T01:19:53.231Z,5.03
2022-09-04T01:22:59.471Z,5.30
2022-09-04T01:25:51.637Z,5.10
2022-09-04T01:28:22.139Z,5.10
2022-09-04T01:30:52.110Z,5.70
2022-09-04T01:33:22.162Z,4.90
2022-09-04T01:35:53.901Z,4.97
2022-09-04T01:38:24.334Z,4.93
2022-09-04T01:40:56.485Z,5.00
2022-09-04T01:43:24.241Z,4.90
2022-09-04T01:46:24.807Z,4.80
2022-09-04T01:48:55.266Z,5.30
2022-09-04T01:51:27.651Z,4.80
2022-09-04T01:54:05.222Z,4.23
2022-09-04T01:56:37.223Z,4.00
2022-09-04T01:59:07.731Z,3.83
2022-09-04T02:01:38.500Z,4.33
2022-09-04T02:04:09.262Z,3.77
2022-09-04T02:06:40.914Z,4.47
2022-09-04T02:09:20.097Z,5.13
2022-09-04T02:11:53.549Z,4.70
2022-09-04T02:14:33.659Z,5.40
2022-09-04T02:17:09.142Z,5.30
2022-09-04T02:19:42.582Z,5.57
2022-09-04T02:22:16.293Z,5.50
2022-09-04T02:24:48.112Z,4.23
2022-09-04T02:27:20.425Z,5.17
2022-09-04T02:29:49.875Z,5.50
2022-09-04T02:32:20.275Z,5.43
2022-09-04T02:34:50.854Z,5.20
2022-09-04T02:37:22.510Z,5.13
2022-09-04T02:39:56.249Z,5.90
2022-09-04T02:42:31.273Z,5.07
2022-09-04T02:45:06.170Z,5.30
2022-09-04T02:47:37.854Z,4.33
2022-09-04T02:50:11.186Z,5.70
2022-09-04T02:52:48.629Z,5.30
2022-09-04T02:55:21.789Z,4.93
2022-09-04T02:58:04.191Z,6.03
2022-09-04T03:00:39.447Z,5.53
2022-09-04T03:03:09.319Z,5.90
2022-09-04T03:05:42.022Z,5.10
2022-09-04T03:08:13.291Z,5.50
2022-09-04T03:10:43.769Z,5.83
2022-09-04T03:13:15.704Z,5.23
2022-09-04T03:15:45.343Z,5.47
2022-09-04T03:18:17.721Z,5.53
2022-09-04T03:20:47.484Z,5.87
2022-09-04T03:23:17.225Z,5.87
2022-09-04T03:25:58.381Z,5.90
2022-09-04T03:28:37.026Z,6.13
2022-09-04T03:31:15.015Z,6.57
2022-09-04T03:33:45.006Z,5.40
2022-09-04T03:36:14.735Z,5.57
2022-09-04T03:38:47.451Z,6.03
2022-09-04T03:41:19.560Z,5.60
2022-09-04T03:43:56.885Z,5.90
2022-09-04T03:46:34.424Z,6.00
2022-09-04T03:49:13.949Z,5.90
2022-09-04T03:51:47.201Z,6.27
2022-09-04T03:54:26.034Z,5.90
2022-09-04T03:57:03.566Z,5.80
2022-09-04T03:59:43.366Z,5.97
2022-09-04T04:02:15.110Z,5.90
2022-09-04T04:05:03.606Z,6.27
2022-09-04T04:07:36.019Z,6.70
2022-09-04T04:10:09.035Z,5.97
2022-09-04T04:12:56.786Z,6.47
2022-09-04T04:15:30.434Z,6.10
2022-09-04T04:18:15.988Z,6.13
2022-09-04T04:20:45.624Z,6.47
2022-09-04T04:23:24.412Z,5.87
2022-09-04T04:26:02.236Z,6.37
2022-09-04T04:28:40.070Z,6.23
2022-09-04T04:31:14.471Z,6.37
2022-09-04T04:33:47.125Z,6.20
2022-09-04T04:36:36.515Z,6.33
2022-09-04T04:39:13.192Z,6.70
2022-09-04T04:42:07.536Z,6.47
2022-09-04T04:45:11.032Z,6.60
2022-09-04T04:47:59.296Z,6.10
2022-09-04T04:50:28.897Z,6.43
2022-09-04T04:52:59.736Z,6.23
2022-09-04T04:55:38.683Z,6.13
2022-09-04T04:58:30.800Z,6.00
2022-09-04T05:01:05.279Z,6.03
2022-09-04T05:03:46.029Z,6.10
2022-09-04T05:06:15.899Z,5.97
2022-09-04T05:08:45.610Z,6.07
2022-09-04T05:11:18.512Z,6.27
2022-09-04T05:13:48.664Z,5.50
2022-09-04T05:16:21.637Z,6.20
2022-09-04T05:18:53.274Z,6.90
2022-09-04T05:21:22.694Z,6.17
2022-09-04T05:23:52.870Z,6.00
2022-09-04T05:26:23.115Z,6.70
2022-09-04T05:28:55.618Z,6.47
2022-09-04T05:31:28.782Z,6.40
2022-09-04T05:34:00.930Z,6.27
2022-09-04T05:36:36.605Z,6.50
2022-09-04T05:39:08.865Z,6.93
2022-09-04T05:41:46.798Z,7.17
2022-09-04T05:44:19.925Z,6.40
2022-09-04T05:46:54.675Z,6.47
2022-09-04T05:49:30.142Z,6.50
2022-09-04T05:52:16.020Z,5.80
2022-09-04T05:55:05.759Z,6.80
2022-09-04T05:57:39.705Z,8.43
2022-09-04T06:00:12.820Z,6.40
2022-09-04T06:03:14.498Z,5.93
2022-09-04T06:05:57.533Z,6.07
2022-09-04T06:08:37.104Z,6.20
2022-09-04T06:11:20.233Z,5.40
2022-09-04T06:13:59.412Z,5.60
2022-09-04T06:16:47.729Z,4.97
2022-09-04T06:19:43.595Z,6.13
2022-09-04T06:22:42.246Z,8.83
2022-09-04T06:25:25.730Z,5.50
2022-09-04T06:28:18.245Z,4.60
2022-09-04T06:30:49.092Z,5.20
2022-09-04T06:33:23.142Z,5.20
2022-09-04T06:35:59.874Z,5.30
2022-09-04T06:38:37.299Z,5.18
2022-09-04T06:41:24.298Z,4.68
2022-09-04T06:43:55.783Z,5.30
2022-09-04T06:46:26.838Z,6.63
2022-09-04T06:49:00.556Z,5.50
2022-09-04T06:51:36.170Z,5.78
2022-09-04T06:54:14.536Z,5.07
2022-09-04T06:57:00.583Z,5.32
2022-09-04T06:59:57.073Z,4.32
2022-09-04T07:02:33.324Z,4.00
2022-09-04T07:05:10.068Z,4.10
2022-09-04T07:07:39.639Z,4.10
2022-09-04T07:10:10.566Z,4.35
2022-09-04T07:13:05.857Z,3.92
2022-09-04T07:15:50.447Z,4.00
2022-09-04T07:18:27.902Z,3.80
2022-09-04T07:20:58.301Z,3.72
2022-09-04T07:23:30.831Z,4.07
2022-09-04T07:29:26.004Z,3.67
2022-09-04T07:31:57.465Z,3.30
2022-09-04T07:34:28.879Z,3.22
2022-09-04T07:36:59.172Z,3.30
2022-09-04T07:39:32.300Z,3.30
2022-09-04T07:42:02.749Z,5.75
2022-09-04T07:44:34.912Z,3.35
2022-09-04T07:47:13.547Z,3.25
2022-09-04T07:49:47.026Z,2.88
2022-09-04T07:52:18.597Z,2.75
2022-09-04T07:54:54.544Z,2.65
2022-09-04T07:57:39.004Z,3.15
2022-09-04T08:00:11.855Z,3.25
2022-09-04T08:03:12.015Z,2.78
2022-09-04T08:05:41.896Z,2.58
2022-09-04T08:08:41.117Z,2.42
2022-09-04T08:11:23.263Z,2.97
2022-09-04T08:14:02.662Z,2.70
2022-09-04T08:16:32.923Z,2.63
2022-09-04T08:19:06.898Z,2.95
2022-09-04T08:21:35.436Z,2.80
2022-09-04T08:24:22.362Z,2.97
2022-09-04T08:26:56.785Z,3.28
2022-09-04T08:29:33.325Z,2.28
2022-09-04T08:32:08.877Z,3.10
2022-09-04T08:34:56.415Z,2.38
2022-09-04T08:37:26.362Z,2.33
2022-09-04T08:40:04.523Z,2.60
2022-09-04T08:42:54.058Z,2.25
2022-09-04T08:46:06.354Z,2.70
2022-09-04T08:49:10.373Z,2.10
2022-09-04T08:52:18.856Z,2.33
2022-09-04T08:55:01.811Z,2.30
2022-09-04T08:57:44.630Z,2.60
2022-09-04T09:00:13.404Z,2.60
2022-09-04T09:03:18.447Z,2.50
2022-09-04T09:06:16.458Z,1.98
2022-09-04T09:09:21.367Z,2.90
2022-09-04T09:12:36.731Z,2.40
2022-09-04T09:15:27.107Z,2.50
2022-09-04T09:18:02.371Z,2.08
2022-09-04T09:20:30.916Z,2.10
2022-09-04T09:23:19.870Z,2.35
2022-09-04T09:25:51.673Z,2.25
2022-09-04T09:28:44.789Z,2.45
2022-09-04T09:31:38.233Z,2.13
2022-09-04T09:34:48.194Z,2.65
2022-09-04T09:37:33.824Z,2.70
2022-09-04T09:40:28.115Z,2.50
2022-09-04T09:43:27.745Z,2.55
2022-09-04T09:46:21.148Z,2.00
2022-09-04T09:49:03.605Z,2.47
2022-09-04T09:51:59.501Z,2.80
2022-09-04T09:54:58.456Z,2.70
2022-09-04T09:57:59.393Z,2.70
2022-09-04T10:01:06.392Z,2.28
2022-09-04T10:04:13.340Z,2.53
2022-09-04T10:07:19.795Z,2.75
2022-09-04T10:10:22.803Z,2.42
2022-09-04T10:13:12.000Z,2.65
2022-09-04T10:16:13.488Z,2.90
2022-09-04T10:19:29.832Z,2.67
2022-09-04T10:22:21.673Z,2.85
2022-09-04T10:25:17.507Z,2.60
2022-09-04T10:28:06.106Z,2.67
2022-09-04T10:30:38.244Z,2.90
2022-09-04T10:33:18.107Z,2.60
2022-09-04T10:35:58.398Z,2.70
2022-09-04T10:38:28.314Z,2.80
2022-09-04T10:41:20.935Z,2.95
2022-09-04T10:44:27.173Z,3.00
2022-09-04T10:47:01.154Z,2.70
2022-09-04T10:49:45.843Z,2.47
2022-09-04T10:52:41.824Z,3.10
2022-09-04T10:55:26.636Z,3.47
2022-09-04T10:58:25.306Z,2.85
2022-09-04T11:01:07.014Z,3.08
2022-09-04T11:03:44.419Z,2.35
2022-09-04T11:06:39.033Z,3.03
2022-09-04T11:09:31.146Z,3.17
2022-09-04T11:12:05.897Z,3.00
2022-09-04T11:14:44.383Z,2.75
2022-09-04T11:17:33.874Z,2.63
2022-09-04T11:20:26.715Z,2.33
2022-09-04T11:23:19.632Z,3.10
2022-09-04T11:26:39.166Z,2.70
2022-09-04T11:29:14.882Z,2.55
2022-09-04T11:32:13.106Z,2.42
2022-09-04T11:35:03.459Z,2.50
2022-09-04T11:38:02.820Z,2.72
2022-09-04T11:41:01.467Z,3.42
2022-09-04T11:43:46.585Z,2.85
2022-09-04T11:46:48.098Z,2.42
2022-09-04T11:49:24.965Z,2.78
2022-09-04T11:52:04.044Z,2.58
2022-09-04T11:55:10.116Z,2.25
2022-09-04T11:57:47.895Z,2.25
2022-09-04T12:00:16.302Z,2.55
2022-09-04T12:03:12.945Z,2.40
2022-09-04T12:05:54.157Z,2.58
2022-09-04T12:08:40.357Z,3.00
2022-09-04T12:11:19.597Z,3.00
2022-09-04T12:13:58.216Z,3.10
2022-09-04T12:16:56.909Z,3.00
2022-09-04T12:19:56.963Z,3.15
2022-09-04T12:22:42.894Z,3.20
2022-09-04T12:25:43.882Z,2.90
2022-09-04T12:28:59.015Z,2.80
2022-09-04T12:31:46.799Z,2.97
2022-09-04T12:34:44.368Z,2.80
2022-09-04T12:37:44.694Z,2.88
2022-09-04T12:40:31.773Z,2.85
2022-09-04T12:43:16.438Z,2.78
2022-09-04T12:45:46.791Z,2.63
2022-09-04T12:48:19.548Z,2.80
2022-09-04T12:50:50.557Z,2.90
2022-09-04T12:53:49.281Z,2.60
2022-09-04T12:56:26.174Z,2.65
2022-09-04T12:59:11.446Z,3.00
2022-09-04T13:01:51.811Z,2.80
2022-09-04T13:04:22.704Z,2.60
2022-09-04T13:07:03.441Z,3.30
2022-09-04T13:09:53.294Z,2.97
2022-09-04T13:12:24.746Z,3.40
2022-09-04T13:15:22.571Z,3.22
2022-09-04T13:17:54.905Z,2.88
2022-09-04T13:20:28.936Z,3.50
2022-09-04T13:23:05.382Z,3.15
2022-09-04T13:25:38.345Z,3.20
2022-09-04T13:28:17.186Z,3.17
2022-09-04T13:30:48.518Z,3.20
2022-09-04T13:33:39.607Z,3.83
2022-09-04T13:36:16.578Z,3.42
2022-09-04T13:39:21.534Z,4.38
2022-09-04T13:42:10.922Z,3.88
2022-09-04T13:45:15.114Z,3.53
2022-09-04T13:47:49.704Z,3.35
2022-09-04T13:50:25.511Z,3.60
2022-09-04T13:52:58.024Z,3.00
2022-09-04T13:55:27.054Z,2.38
2022-09-04T13:57:59.577Z,3.30
2022-09-04T14:00:27.614Z,3.22
2022-09-04T14:02:58.126Z,4.28
2022-09-04T14:05:26.839Z,3.63
2022-09-04T14:08:02.838Z,3.47
2022-09-04T14:10:39.045Z,3.25
2022-09-04T14:13:13.460Z,3.15
2022-09-04T14:16:03.946Z,2.67
2022-09-04T14:18:45.271Z,2.50
2022-09-04T14:21:16.947Z,3.10
2022-09-04T14:23:49.664Z,3.08
2022-09-04T14:26:24.609Z,3.00
2022-09-04T14:28:54.687Z,2.38
2022-09-04T14:31:25.981Z,2.63
2022-09-04T14:33:57.765Z,3.33
2022-09-04T14:36:35.752Z,2.50
2022-09-04T14:39:17.048Z,3.53
2022-09-04T14:41:54.570Z,3.90
2022-09-04T14:44:31.592Z,2.72
2022-09-04T14:47:07.610Z,2.60
2022-09-04T14:49:41.480Z,2.42
2022-09-04T14:52:19.683Z,2.83
2022-09-04T14:54:52.582Z,2.45
2022-09-04T14:57:23.691Z,2.40
2022-09-04T15:00:00.424Z,2.38
2022-09-04T15:02:33.248Z,2.45
2022-09-04T15:05:39.782Z,2.30
2022-09-04T15:08:40.928Z,2.50
2022-09-04T15:12:23.831Z,1.90
2022-09-04T15:17:33.471Z,1.95
2022-09-04T15:20:02.251Z,1.70
2022-09-04T15:22:33.272Z,2.00
2022-09-04T15:25:03.166Z,1.67
2022-09-04T15:27:32.875Z,1.85
2022-09-04T15:30:05.246Z,1.90
2022-09-04T15:32:36.620Z,2.17
2022-09-04T15:35:16.131Z,1.58
2022-09-04T15:37:44.204Z,1.88
2022-09-04T15:40:13.917Z,2.30
2022-09-04T15:42:44.765Z,2.05
2022-09-04T15:45:18.707Z,2.38
2022-09-04T15:48:04.311Z,2.08
2022-09-04T15:50:32.933Z,1.90
2022-09-04T15:53:10.134Z,2.42
2022-09-04T15:55:38.582Z,2.22
2022-09-04T15:58:09.569Z,2.65
2022-09-04T16:00:38.743Z,2.10
2022-09-04T16:03:12.247Z,2.08
2022-09-04T16:08:20.358Z,2.20
2022-09-04T16:10:54.374Z,2.05
2022-09-04T16:13:38.461Z,1.70
2022-09-04T16:16:09.759Z,1.80
2022-09-04T16:18:46.635Z,2.10
2022-09-04T16:21:22.445Z,1.70
2022-09-04T16:23:50.094Z,2.03
2022-09-04T16:26:19.166Z,2.83
2022-09-04T16:28:48.353Z,3.13
2022-09-04T16:31:23.034Z,3.00
2022-09-04T16:33:53.219Z,2.65
2022-09-04T16:36:22.563Z,2.20
2022-09-04T16:38:53.119Z,2.42
2022-09-04T16:41:25.738Z,2.40
2022-09-04T16:44:26.201Z,2.28
2022-09-04T16:47:02.808Z,2.33
2022-09-04T16:49:39.079Z,2.88
2022-09-04T16:52:27.084Z,4.25
2022-09-04T16:54:55.496Z,3.40
2022-09-04T16:57:29.274Z,3.13
2022-09-04T16:59:58.908Z,3.20
2022-09-04T17:02:36.293Z,2.20
2022-09-04T17:05:17.885Z,2.70
2022-09-04T17:07:48.783Z,2.38
2022-09-04T17:10:28.195Z,2.70
2022-09-04T17:13:04.138Z,2.60
2022-09-04T17:15:35.861Z,2.55
2022-09-04T17:18:07.606Z,2.20
2022-09-04T17:23:41.286Z,3.28
2022-09-04T17:28:54.429Z,2.75
2022-09-04T17:29:11.493Z,2.38
2022-09-04T17:29:34.920Z,2.78
2022-09-04T17:32:35.455Z,2.33
2022-09-04T17:40:21.502Z,2.25
2022-09-04T17:40:40.958Z,2.70
2022-09-04T17:41:37.880Z,2.70
2022-09-04T17:43:39.526Z,10.32
2022-09-04T17:46:15.893Z,2.35
2022-09-04T17:49:00.767Z,2.03
2022-09-04T17:51:29.335Z,2.45
2022-09-04T17:53:59.906Z,2.10
2022-09-04T17:56:29.461Z,2.38
2022-09-04T17:59:01.468Z,2.30
2022-09-04T18:01:31.420Z,2.22
2022-09-04T18:04:21.518Z,2.25
2022-09-04T18:06:59.016Z,2.60
2022-09-04T18:09:33.201Z,2.20
2022-09-04T18:12:05.549Z,2.88
2022-09-04T18:14:38.190Z,3.25
2022-09-04T18:17:12.500Z,2.72
2022-09-04T18:19:44.402Z,2.47
2022-09-04T18:22:25.592Z,2.50
2022-09-04T18:24:57.161Z,2.85
2022-09-04T18:27:27.419Z,2.72
2022-09-04T18:32:41.121Z,2.85
2022-09-04T18:37:10.703Z,2.70
2022-09-04T18:37:15.977Z,2.83
2022-09-04T18:38:37.717Z,3.00
2022-09-04T18:46:52.883Z,2.60
2022-09-04T18:50:24.955Z,2.60
2022-09-04T18:50:34.148Z,2.92
2022-09-04T18:50:35.452Z,2.70
2022-09-04T18:52:44.096Z,2.45
2022-09-04T18:55:14.758Z,2.58
2022-09-04T18:57:49.207Z,2.90
2022-09-04T19:00:24.388Z,2.70
2022-09-04T19:02:54.768Z,2.67
2022-09-04T19:05:24.696Z,3.13
2022-09-04T19:07:54.211Z,2.78
2022-09-04T19:10:25.476Z,2.53
2022-09-04T19:13:02.251Z,3.08
2022-09-04T19:15:52.154Z,3.45
2022-09-04T19:18:25.536Z,3.00
2022-09-04T19:20:56.810Z,3.50
2022-09-04T19:23:29.208Z,3.10
2022-09-04T19:25:57.434Z,3.10
2022-09-04T19:28:28.679Z,3.17
2022-09-04T19:30:59.468Z,3.03
2022-09-04T19:33:31.956Z,3.08
2022-09-04T19:36:01.961Z,3.35
2022-09-04T19:43:07.610Z,3.20
2022-09-04T19:46:01.429Z,3.45
2022-09-04T19:46:08.157Z,3.30
2022-09-04T19:47:27.251Z,2.90
2022-09-04T19:53:18.186Z,3.70
2022-09-04T19:53:33.359Z,3.65
2022-09-04T19:55:41.817Z,3.25
2022-09-04T19:58:10.475Z,3.30
2022-09-04T20:00:44.436Z,3.33
2022-09-04T20:03:29.724Z,4.05
2022-09-04T20:06:05.223Z,3.60
2022-09-04T20:08:51.810Z,3.20
2022-09-04T20:11:34.509Z,3.10
2022-09-04T20:14:13.875Z,3.50
2022-09-04T20:16:48.565Z,3.42
2022-09-04T20:19:24.527Z,3.33
2022-09-04T20:21:58.492Z,3.83
2022-09-04T20:24:27.046Z,3.83
2022-09-04T20:26:59.783Z,4.50
2022-09-04T20:29:30.789Z,3.70
2022-09-04T20:32:00.897Z,3.92
2022-09-04T20:34:32.938Z,3.28
2022-09-04T20:37:23.573Z,3.72
2022-09-04T20:39:58.224Z,3.40
2022-09-04T20:42:28.674Z,3.78
2022-09-04T20:48:43.369Z,4.15
2022-09-04T20:52:43.805Z,3.95
2022-09-04T20:53:04.554Z,4.40
2022-09-04T20:53:40.006Z,4.05
2022-09-04T20:56:28.137Z,4.25
2022-09-04T21:03:07.863Z,4.20
2022-09-04T21:03:19.611Z,4.50
2022-09-04T21:04:53.154Z,4.43
2022-09-04T21:07:27.177Z,4.20
2022-09-04T21:10:10.423Z,4.50
2022-09-04T21:12:40.107Z,4.38
2022-09-04T21:15:14.821Z,4.50
2022-09-04T21:18:06.449Z,4.40
2022-09-04T21:21:00.093Z,4.25
2022-09-04T21:24:10.281Z,4.15
2022-09-04T21:27:12.947Z,4.63
2022-09-04T21:30:06.145Z,4.40
2022-09-04T21:32:48.649Z,4.40
2022-09-04T21:35:19.687Z,4.20
2022-09-04T21:37:52.761Z,4.27
2022-09-04T21:41:02.628Z,4.53
2022-09-04T21:43:44.618Z,4.00
2022-09-04T21:46:41.151Z,4.33
2022-09-04T21:49:26.398Z,4.50
2022-09-04T21:52:05.039Z,4.93
2022-09-04T21:57:17.686Z,5.03
2022-09-04T22:02:37.308Z,4.90
2022-09-04T22:02:42.415Z,4.90
2022-09-04T22:04:23.155Z,4.70
2022-09-04T22:08:33.183Z,5.10
2022-09-04T22:13:30.343Z,5.37
2022-09-04T22:13:43.608Z,5.23
2022-09-04T22:15:44.945Z,4.63
2022-09-04T22:18:39.572Z,4.60
2022-09-04T22:21:16.858Z,5.07
2022-09-04T22:24:10.784Z,4.83
2022-09-04T22:27:02.335Z,4.50
2022-09-04T22:29:59.619Z,4.53
2022-09-04T22:32:57.186Z,4.80
2022-09-04T22:35:51.889Z,4.70
2022-09-04T22:40:58.754Z,4.80
2022-09-04T22:43:29.173Z,4.90
2022-09-04T22:46:31.033Z,4.90
2022-09-04T22:49:31.266Z,4.57
2022-09-04T22:52:20.952Z,5.40
2022-09-04T22:54:55.058Z,5.10
2022-09-04T22:57:24.408Z,4.50
2022-09-04T23:00:06.275Z,5.20
2022-09-04T23:03:08.297Z,5.20
2022-09-04T23:06:05.068Z,4.60
2022-09-04T23:13:54.845Z,4.57
2022-09-04T23:13:57.622Z,5.30
2022-09-04T23:15:08.515Z,5.57
2022-09-04T23:18:05.809Z,5.13
2022-09-04T23:25:50.721Z,5.30
2022-09-04T23:26:42.367Z,5.40
2022-09-04T23:27:08.676Z,5.40
2022-09-04T23:30:05.187Z,5.00
2022-09-04T23:33:08.432Z,4.77
2022-09-04T23:35:41.381Z,5.17
2022-09-04T23:38:28.085Z,5.23
2022-09-04T23:40:56.003Z,5.23
2022-09-04T23:43:42.215Z,5.00
2022-09-04T23:46:35.020Z,5.10
2022-09-04T23:49:20.669Z,5.30
2022-09-04T23:51:51.896Z,5.23
2022-09-04T23:54:43.335Z,5.00
2022-09-04T23:57:26.236Z,5.50
2022-09-04T23:59:58.535Z,5.10
